Terminal Aerodrome Forecast
Issued by NWS

Current Version | Previous Version | Text Only | Print | Product List | Glossary On
Versions: 1 2 3 4 5 6 7 8 9 10 11 12 13 14 15 16 17 18 19 20 21 22 23 24 25 26 27 28 29 30 31 32 33
000
FTUS41 KBUF 182100 AAB
TAFJHW
TAF AMD
KJHW 182155Z 1822/1918 33010KT P6SM SCT015
     FM190300 06006KT P6SM BKN015
     FM190600 10005KT 2SM BR SCT002
     FM191400 13007KT P6SM FEW150
      AMD LTD TO CLD VIS AND WIND=

USA.gov is the U.S. government's official web portal to all federal, state and local government web resources and services.